createdAt,value
2019-05-10T00:00:18.194Z,91.30
2019-05-10T00:03:05.569Z,91.20
2019-05-10T00:05:53.972Z,91.10
2019-05-10T00:08:41.595Z,91.20
2019-05-10T00:11:11.980Z,91.50
2019-05-10T00:13:49.288Z,91.30
2019-05-10T00:16:18.892Z,91.30
2019-05-10T00:18:49.485Z,91.40
2019-05-10T00:21:19.541Z,91.50
2019-05-10T00:23:49.093Z,91.50
2019-05-10T00:26:18.769Z,91.50
2019-05-10T00:28:48.467Z,91.00
2019-05-10T00:31:17.990Z,91.20
2019-05-10T00:33:47.517Z,91.20
2019-05-10T00:36:17.037Z,91.20
2019-05-10T00:38:46.636Z,91.50
2019-05-10T00:41:16.144Z,91.60
2019-05-10T00:43:45.614Z,91.80
2019-05-10T00:46:15.052Z,92.00
2019-05-10T00:48:44.592Z,92.30
2019-05-10T00:51:14.993Z,92.60
2019-05-10T00:53:44.661Z,92.80
2019-05-10T00:56:14.143Z,93.00
2019-05-10T00:58:43.660Z,93.00
2019-05-10T01:01:13.354Z,92.80
2019-05-10T01:03:42.802Z,92.70
2019-05-10T01:06:13.967Z,92.50
2019-05-10T01:08:43.414Z,92.40
2019-05-10T01:11:12.871Z,92.30
2019-05-10T01:13:42.513Z,92.10
2019-05-10T01:16:12.044Z,92.30
2019-05-10T01:18:41.536Z,92.20
2019-05-10T01:21:10.995Z,91.90
2019-05-10T01:23:40.431Z,91.70
2019-05-10T01:26:09.902Z,91.60
2019-05-10T01:28:39.341Z,91.40
2019-05-10T01:31:08.812Z,91.10
2019-05-10T01:33:38.262Z,91.00
2019-05-10T01:36:07.732Z,91.20
2019-05-10T01:38:37.165Z,91.00
2019-05-10T01:41:06.628Z,91.00
2019-05-10T01:43:36.073Z,90.60
2019-05-10T01:46:05.668Z,90.60
2019-05-10T01:48:35.109Z,90.60
2019-05-10T01:51:05.628Z,91.00
2019-05-10T01:53:35.074Z,91.30
2019-05-10T01:56:04.664Z,91.70
2019-05-10T01:58:34.099Z,92.00
2019-05-10T03:37:19.906Z,96.90
2019-05-10T03:40:59.085Z,95.80
2019-05-10T03:42:35.992Z,96.90
2019-05-10T03:51:27.153Z,97.30
2019-05-10T03:57:47.510Z,97.20
2019-05-10T04:00:34.708Z,97.60
2019-05-10T04:03:23.323Z,97.50
2019-05-10T05:10:10.041Z,91.40
2019-05-10T05:10:44.882Z,91.80
2019-05-10T05:23:30.909Z,84.00
2019-05-10T05:32:30.578Z,78.40
2019-05-10T05:35:41.630Z,78.10
2019-05-10T05:44:25.937Z,78.90
2019-05-10T06:03:06.852Z,71.20
2019-05-10T06:08:44.901Z,73.60
2019-05-10T06:11:29.823Z,74.60
2019-05-10T06:20:38.323Z,77.10
2019-05-10T06:43:31.405Z,71.50
2019-05-10T06:45:46.561Z,73.30
2019-05-10T06:48:34.033Z,74.60
2019-05-10T06:54:45.737Z,74.30
2019-05-10T06:57:31.678Z,75.00
2019-05-10T07:00:17.271Z,78.90
2019-05-10T07:02:47.255Z,85.00
2019-05-10T07:05:18.960Z,88.20
2019-05-10T07:07:48.352Z,88.50
2019-05-10T07:10:25.022Z,91.10
2019-05-10T07:12:50.748Z,88.00
2019-05-10T07:15:20.372Z,90.50
2019-05-10T07:17:49.839Z,89.80
2019-05-10T07:20:23.681Z,91.50
2019-05-10T07:22:50.496Z,91.30
2019-05-10T07:25:19.957Z,91.50
2019-05-10T07:27:50.437Z,91.40
2019-05-10T07:30:27.380Z,91.30
2019-05-10T07:32:59.755Z,90.30
2019-05-10T07:35:30.959Z,90.00
2019-05-10T07:37:59.220Z,91.30
2019-05-10T07:40:28.852Z,90.90
2019-05-10T07:42:58.368Z,90.30
2019-05-10T07:45:28.007Z,89.30
2019-05-10T07:47:57.432Z,90.30
2019-05-10T07:50:26.927Z,91.40
2019-05-10T07:52:56.444Z,89.80
2019-05-10T07:55:29.682Z,88.30
2019-05-10T07:57:59.081Z,87.10
2019-05-10T08:00:28.177Z,87.30
2019-05-10T08:03:07.491Z,82.90
2019-05-10T08:05:29.616Z,80.10
2019-05-10T08:07:59.178Z,79.70
2019-05-10T08:10:29.109Z,79.10
2019-05-10T08:12:59.550Z,79.00
2019-05-10T08:15:34.991Z,82.30
2019-05-10T08:18:04.740Z,78.90
2019-05-10T08:20:46.685Z,75.90
2019-05-10T08:23:05.349Z,73.40
2019-05-10T08:25:39.633Z,75.30
2019-05-10T08:28:05.947Z,71.30
2019-05-10T08:30:42.791Z,76.70
2019-05-10T08:33:13.574Z,83.10
2019-05-10T08:35:45.899Z,87.80
2019-05-10T08:38:13.227Z,90.70
2019-05-10T08:40:43.016Z,91.90
2019-05-10T08:43:16.034Z,94.10
2019-05-10T08:45:47.735Z,93.20
2019-05-10T08:48:14.860Z,93.70
2019-05-10T08:50:53.503Z,93.30
2019-05-10T08:53:16.569Z,93.50
2019-05-10T08:55:49.433Z,93.80
2019-05-10T09:01:20.656Z,93.10
2019-05-10T09:03:37.150Z,94.10
2019-05-10T09:06:11.513Z,93.10
2019-05-10T09:08:37.886Z,92.60
2019-05-10T09:11:07.375Z,90.40
2019-05-10T09:13:40.854Z,87.50
2019-05-10T09:16:07.917Z,87.00
2019-05-10T09:18:38.040Z,86.70
2019-05-10T09:21:11.571Z,86.20
2019-05-10T09:23:42.678Z,83.00
2019-05-10T09:26:16.529Z,78.00
2019-05-10T09:28:47.469Z,73.00
2019-05-10T09:31:21.986Z,75.30
2019-05-10T09:33:49.529Z,65.80
2019-05-10T09:36:16.267Z,64.10
2019-05-10T09:38:46.464Z,58.10
2019-05-10T09:41:16.104Z,59.50
2019-05-10T09:43:50.315Z,60.20
2019-05-10T09:46:16.702Z,58.60
2019-05-10T09:48:46.263Z,61.30
2019-05-10T09:51:19.021Z,59.70
2019-05-10T09:53:48.507Z,60.60
2019-05-10T09:56:17.861Z,56.30
2019-05-10T09:58:48.211Z,57.80
2019-05-10T10:01:21.618Z,54.90
2019-05-10T10:03:49.258Z,57.90
2019-05-10T10:06:18.678Z,57.70
2019-05-10T10:08:51.921Z,60.80
2019-05-10T10:11:19.733Z,59.80
2019-05-10T10:13:58.627Z,62.10
2019-05-10T10:16:20.413Z,66.90
2019-05-10T10:18:49.875Z,62.30
2019-05-10T10:21:30.479Z,58.00
2019-05-10T10:23:50.455Z,53.50
2019-05-10T10:26:22.306Z,56.10
2019-05-10T10:28:55.136Z,49.80
2019-05-10T10:31:29.091Z,51.40
2019-05-10T10:33:58.171Z,49.70
2019-05-10T10:36:27.180Z,47.30
2019-05-10T10:38:55.667Z,49.20
2019-05-10T10:41:26.328Z,48.50
2019-05-10T10:43:58.337Z,50.50
2019-05-10T10:46:28.031Z,51.50
2019-05-10T10:49:23.145Z,52.40
2019-05-10T10:51:54.078Z,55.30
2019-05-10T10:54:30.214Z,62.40
2019-05-10T10:56:54.583Z,72.50
2019-05-10T10:59:24.052Z,83.20
2019-05-10T11:02:25.134Z,90.90
2019-05-10T11:04:24.581Z,95.20
2019-05-10T11:07:09.183Z,92.10
2019-05-10T11:09:25.131Z,90.30
2019-05-10T11:11:54.585Z,87.30
2019-05-10T11:14:24.036Z,86.40
2019-05-10T11:16:57.098Z,82.70
2019-05-10T11:19:24.570Z,80.80
2019-05-10T11:21:54.004Z,72.60
2019-05-10T11:24:23.460Z,75.50
2019-05-10T11:26:52.901Z,77.40
2019-05-10T11:29:27.779Z,78.90
2019-05-10T11:32:11.041Z,81.00
2019-05-10T11:34:29.337Z,78.20
2019-05-10T11:36:55.626Z,80.60
2019-05-10T11:39:26.757Z,84.90
2019-05-10T11:42:02.325Z,87.00
2019-05-10T11:44:27.353Z,86.20
2019-05-10T11:46:56.806Z,88.70
2019-05-10T11:49:26.266Z,89.00
2019-05-10T11:54:26.829Z,88.20
2019-05-10T11:56:58.578Z,90.20
2019-05-10T11:59:03.904Z,87.40
2019-05-10T11:59:33.025Z,88.20
2019-05-10T12:02:00.548Z,90.70
2019-05-10T12:04:38.225Z,90.00
2019-05-10T12:07:02.693Z,89.30
2019-05-10T12:09:33.665Z,90.00
2019-05-10T12:12:03.541Z,90.70
2019-05-10T12:14:33.153Z,87.60
2019-05-10T12:17:06.380Z,90.00
2019-05-10T12:22:04.969Z,79.80
2019-05-10T12:24:52.151Z,78.10
2019-05-10T12:26:17.861Z,83.90
2019-05-10T12:27:17.441Z,80.10
2019-05-10T12:29:36.960Z,81.60
2019-05-10T12:32:10.259Z,82.00
2019-05-10T12:34:37.473Z,83.00
2019-05-10T12:37:08.349Z,87.30
2019-05-10T12:39:38.015Z,85.80
2019-05-10T12:42:07.516Z,83.60
2019-05-10T12:44:42.838Z,80.80
2019-05-10T12:47:11.332Z,78.10
2019-05-10T12:49:40.931Z,82.10
2019-05-10T12:52:14.155Z,73.80
2019-05-10T12:54:41.746Z,73.30
2019-05-10T12:57:14.322Z,71.60
2019-05-10T12:59:43.782Z,71.10
2019-05-10T13:02:13.317Z,71.00
2019-05-10T13:04:47.219Z,72.80
2019-05-10T13:07:13.861Z,68.50
2019-05-10T13:09:43.348Z,65.70
2019-05-10T13:12:13.220Z,63.60
2019-05-10T13:14:46.579Z,64.20
2019-05-10T13:17:17.088Z,67.80
2019-05-10T13:19:45.863Z,65.70
2019-05-10T13:22:15.303Z,63.10
2019-05-10T13:24:44.889Z,60.80
2019-05-10T13:27:14.317Z,62.00
2019-05-10T13:29:47.178Z,63.30
2019-05-10T13:32:20.372Z,59.60
2019-05-10T13:34:46.072Z,58.90
2019-05-10T13:37:23.411Z,57.70
2019-05-10T13:39:46.621Z,58.70
2019-05-10T13:42:16.057Z,59.00
2019-05-10T13:44:45.589Z,57.30
2019-05-10T13:47:15.104Z,59.50
2019-05-10T13:49:48.492Z,60.10
2019-05-10T13:52:15.683Z,59.40
2019-05-10T13:54:46.297Z,60.80
2019-05-10T13:57:15.753Z,56.50
2019-05-10T14:00:36.278Z,57.80
2019-05-10T14:03:11.315Z,57.40
2019-05-10T14:05:39.986Z,55.80
2019-05-10T14:08:08.416Z,59.50
2019-05-10T14:13:59.511Z,59.90
2019-05-10T14:16:29.056Z,59.40
2019-05-10T14:18:58.491Z,55.20
2019-05-10T14:21:27.959Z,55.70
2019-05-10T14:23:57.511Z,56.00
2019-05-10T14:26:26.941Z,57.60
2019-05-10T14:28:56.372Z,59.50
2019-05-10T14:31:25.828Z,58.50
2019-05-10T14:36:26.366Z,56.50
2019-05-10T14:38:56.873Z,58.40
2019-05-10T14:41:26.327Z,53.80
2019-05-10T14:43:55.759Z,57.30
2019-05-10T14:46:25.213Z,53.10
2019-05-10T14:48:54.656Z,54.00
2019-05-10T14:51:38.687Z,51.10
2019-05-10T14:53:58.470Z,52.00
2019-05-10T14:56:26.271Z,54.70
2019-05-10T14:58:55.707Z,53.30
2019-05-10T15:01:25.179Z,51.80
2019-05-10T15:03:54.622Z,50.40
2019-05-10T15:06:24.081Z,51.00
2019-05-10T15:08:53.513Z,51.90
2019-05-10T15:11:26.493Z,50.50
2019-05-10T15:13:56.975Z,46.90
2019-05-10T15:16:30.836Z,47.50
2019-05-10T15:19:03.767Z,52.30
2019-05-10T15:21:34.670Z,52.00
2019-05-10T15:24:04.278Z,49.30
2019-05-10T15:26:37.323Z,45.50
2019-05-10T15:29:07.832Z,42.50
2019-05-10T15:31:37.373Z,44.90
2019-05-10T15:34:06.811Z,46.30
2019-05-10T15:36:37.437Z,47.00
2019-05-10T15:39:39.417Z,48.80
2019-05-10T15:42:30.527Z,53.20
2019-05-10T15:51:49.073Z,46.10
2019-05-10T16:01:14.515Z,41.80
2019-05-10T16:03:59.845Z,43.70
2019-05-10T16:04:39.091Z,39.00
2019-05-10T16:06:32.634Z,45.90
2019-05-10T16:09:07.202Z,48.30
2019-05-10T16:11:31.631Z,40.60
2019-05-10T16:14:01.732Z,39.00
2019-05-10T16:16:37.044Z,39.40
2019-05-10T16:19:02.538Z,38.90
2019-05-10T16:21:32.043Z,39.50
2019-05-10T16:24:03.065Z,42.60
2019-05-10T16:26:38.158Z,44.20
2019-05-10T16:29:14.677Z,45.30
2019-05-10T16:31:45.652Z,48.20
2019-05-10T16:34:16.647Z,49.40
2019-05-10T16:36:48.545Z,51.20
2019-05-10T16:39:18.007Z,52.30
2019-05-10T16:41:47.449Z,52.50
2019-05-10T16:44:16.908Z,60.20
2019-05-10T16:46:46.332Z,61.30
2019-05-10T16:49:17.226Z,59.10
2019-05-10T16:51:49.847Z,58.70
2019-05-10T16:54:24.676Z,57.50
2019-05-10T16:56:51.611Z,56.70
2019-05-10T16:59:24.230Z,56.70
2019-05-10T17:01:52.003Z,56.80
2019-05-10T17:04:21.468Z,54.20
2019-05-10T17:06:50.924Z,52.00
2019-05-10T17:09:21.352Z,47.50
2019-05-10T17:11:50.787Z,48.30
2019-05-10T17:14:20.264Z,48.50
2019-05-10T17:16:58.448Z,50.40
2019-05-10T17:19:20.791Z,49.20
2019-05-10T17:21:50.227Z,46.40
2019-05-10T17:24:23.817Z,44.30
2019-05-10T17:26:50.753Z,43.90
2019-05-10T17:29:20.209Z,41.50
2019-05-10T17:31:49.635Z,41.80
2019-05-10T17:34:27.539Z,42.10
2019-05-10T17:36:51.727Z,40.80
2019-05-10T17:39:26.042Z,40.90
2019-05-10T17:41:57.819Z,42.30
2019-05-10T17:44:25.062Z,43.80
2019-05-10T17:46:55.390Z,44.80
2019-05-10T17:49:25.695Z,47.50
2019-05-10T17:51:55.132Z,49.50
2019-05-10T17:54:24.579Z,51.80
2019-05-10T17:56:54.026Z,53.50
2019-05-10T17:59:23.490Z,54.80
2019-05-10T18:01:52.940Z,57.00
2019-05-10T18:04:22.397Z,57.80
2019-05-10T18:06:51.827Z,57.10
2019-05-10T18:09:21.374Z,58.00
2019-05-10T18:11:50.807Z,58.00
2019-05-10T18:14:20.274Z,58.60
2019-05-10T18:16:50.692Z,59.40
2019-05-10T18:19:24.776Z,61.90
2019-05-10T18:21:55.080Z,65.50
2019-05-10T18:24:23.960Z,68.80
2019-05-10T18:26:53.399Z,71.10
2019-05-10T18:29:22.933Z,73.90
2019-05-10T18:31:55.962Z,76.60
2019-05-10T18:34:26.529Z,79.10
2019-05-10T18:36:54.555Z,81.30
2019-05-10T18:39:24.014Z,83.10
2019-05-10T18:41:53.461Z,85.00
2019-05-10T18:44:22.920Z,87.20
2019-05-10T18:46:52.350Z,88.40
2019-05-10T18:49:21.820Z,89.30
2019-05-10T18:51:51.250Z,90.10
2019-05-10T18:54:20.713Z,90.60
2019-05-10T18:56:50.148Z,90.80
2019-05-10T18:59:19.578Z,90.70
2019-05-10T19:01:49.096Z,91.00
2019-05-10T19:04:18.536Z,91.30
2019-05-10T19:06:49.888Z,91.30
2019-05-10T19:09:19.054Z,91.30
2019-05-10T19:11:48.508Z,91.50
2019-05-10T19:14:18.250Z,91.50
2019-05-10T19:16:47.688Z,91.70
2019-05-10T19:19:17.130Z,91.70
2019-05-10T19:21:46.584Z,91.70
2019-05-10T19:24:16.024Z,91.70
2019-05-10T19:26:45.485Z,91.70
2019-05-10T19:29:14.912Z,91.50
2019-05-10T19:31:44.377Z,91.50
2019-05-10T19:34:15.285Z,91.50
2019-05-10T19:36:44.954Z,91.60
2019-05-10T19:39:14.406Z,91.60
2019-05-10T19:41:43.855Z,91.70
2019-05-10T19:44:13.283Z,91.70
2019-05-10T19:46:42.742Z,92.10
2019-05-10T19:49:13.072Z,92.20
2019-05-10T19:51:48.373Z,92.60
2019-05-10T19:54:19.540Z,92.70
2019-05-10T19:56:45.423Z,93.00
2019-05-10T19:59:14.930Z,93.20
2019-05-10T20:01:45.367Z,93.30
2019-05-10T20:04:15.132Z,93.40
2019-05-10T20:06:44.580Z,93.60
2019-05-10T20:09:14.010Z,94.00
2019-05-10T20:11:43.455Z,94.20
2019-05-10T20:14:12.955Z,94.40
2019-05-10T20:16:52.161Z,94.70
2019-05-10T20:19:14.515Z,94.80
2019-05-10T20:21:43.951Z,94.90
2019-05-10T20:24:13.379Z,95.10
2019-05-10T20:26:42.827Z,95.20
2019-05-10T20:29:12.505Z,95.20
2019-05-10T20:31:42.534Z,95.50
2019-05-10T20:34:12.030Z,95.10
2019-05-10T20:36:41.480Z,95.20
2019-05-10T20:39:10.988Z,95.40
2019-05-10T20:41:40.507Z,95.40
2019-05-10T20:44:09.932Z,95.50
2019-05-10T20:46:39.387Z,95.50
2019-05-10T20:49:08.818Z,95.30
2019-05-10T20:51:38.267Z,95.10
2019-05-10T20:54:07.778Z,95.00
2019-05-10T20:56:38.301Z,95.00
2019-05-10T20:59:07.718Z,95.10
2019-05-10T21:01:37.181Z,95.20
2019-05-10T21:04:07.691Z,95.40
2019-05-10T21:06:37.139Z,95.40
2019-05-10T21:09:06.638Z,95.40
2019-05-10T21:11:36.128Z,95.40
2019-05-10T21:14:05.781Z,95.50
2019-05-10T21:16:35.238Z,95.40
2019-05-10T21:19:04.659Z,95.50
2019-05-10T21:21:34.121Z,95.50
2019-05-10T21:24:03.547Z,95.50
2019-05-10T21:26:33.078Z,95.70
2019-05-10T21:29:02.509Z,95.80
2019-05-10T21:31:32.836Z,95.80
2019-05-10T21:34:09.805Z,95.80
2019-05-10T21:36:33.347Z,96.20
2019-05-10T21:39:02.998Z,95.90
2019-05-10T21:41:32.441Z,96.20
2019-05-10T21:44:01.866Z,96.10
2019-05-10T21:46:31.393Z,96.20
2019-05-10T21:49:00.837Z,96.30
2019-05-10T21:51:30.360Z,96.30
2019-05-10T21:53:59.777Z,96.30
2019-05-10T21:56:29.262Z,96.40
2019-05-10T21:58:58.743Z,96.30
2019-05-10T22:01:28.287Z,96.20
2019-05-10T22:03:57.733Z,96.10
2019-05-10T22:06:27.216Z,96.10
2019-05-10T22:08:56.862Z,95.90
2019-05-10T22:11:26.320Z,95.80
2019-05-10T22:13:55.820Z,95.80
2019-05-10T22:16:25.351Z,95.90
2019-05-10T22:19:03.922Z,95.90
2019-05-10T22:21:33.389Z,96.00
2019-05-10T22:24:02.940Z,96.00
2019-05-10T22:26:32.423Z,96.00
2019-05-10T22:29:01.900Z,95.90
2019-05-10T22:31:31.371Z,95.60
2019-05-10T22:34:00.871Z,95.50
2019-05-10T22:36:30.350Z,95.60
2019-05-10T22:39:07.007Z,95.50
2019-05-10T22:41:32.074Z,95.40
2019-05-10T22:44:01.568Z,95.30
2019-05-10T22:46:31.037Z,95.30
2019-05-10T22:49:00.522Z,95.10
2019-05-10T22:51:29.990Z,95.10
2019-05-10T22:54:00.311Z,95.20
2019-05-10T22:56:31.027Z,95.20
2019-05-10T22:59:00.518Z,95.40
2019-05-10T23:01:29.996Z,95.50
2019-05-10T23:03:59.551Z,95.60
2019-05-10T23:06:28.974Z,95.70
2019-05-10T23:08:58.478Z,95.70
2019-05-10T23:11:27.940Z,95.50
2019-05-10T23:13:57.431Z,95.20
2019-05-10T23:16:27.977Z,94.90
2019-05-10T23:18:57.470Z,94.90
2019-05-10T23:21:26.945Z,94.80
2019-05-10T23:23:56.511Z,94.80
2019-05-10T23:26:26.002Z,94.90
2019-05-10T23:28:56.569Z,95.10
2019-05-10T23:31:26.079Z,95.40
2019-05-10T23:33:55.564Z,95.30
2019-05-10T23:36:25.033Z,95.20
2019-05-10T23:38:54.515Z,95.10
2019-05-10T23:41:24.003Z,95.20
2019-05-10T23:43:53.491Z,95.30
2019-05-10T23:46:22.965Z,95.20
2019-05-10T23:48:52.467Z,95.00
2019-05-10T23:51:22.003Z,95.00
2019-05-10T23:53:51.511Z,95.20
2019-05-10T23:56:20.962Z,95.10
2019-05-10T23:58:50.467Z,95.30
